createdAt,value
2022-09-12T00:00:01.174Z,18.40
2022-09-12T00:00:32.962Z,18.40
2022-09-12T00:01:17.907Z,18.40
2022-09-12T00:01:49.911Z,18.40
2022-09-12T00:02:22.132Z,18.40
2022-09-12T00:02:55.295Z,18.40
2022-09-12T00:03:27.025Z,18.40
2022-09-12T00:04:00.895Z,18.30
2022-09-12T00:04:32.750Z,18.30
2022-09-12T00:05:05.586Z,18.30
2022-09-12T00:05:45.594Z,18.30
2022-09-12T00:06:23.105Z,18.30
2022-09-12T00:06:55.115Z,18.30
2022-09-12T00:07:26.848Z,18.30
2022-09-12T00:07:59.057Z,18.30
2022-09-12T00:08:30.770Z,18.30
2022-09-12T00:09:08.368Z,18.30
2022-09-12T00:09:40.213Z,18.30
2022-09-12T00:10:11.986Z,18.30
2022-09-12T00:10:44.491Z,18.30
2022-09-12T00:11:16.345Z,18.30
2022-09-12T00:11:48.255Z,18.30
2022-09-12T00:12:20.081Z,18.30
2022-09-12T00:12:52.351Z,18.20
2022-09-12T00:13:24.214Z,18.20
2022-09-12T00:13:58.644Z,18.40
2022-09-12T00:14:30.538Z,18.20
2022-09-12T00:15:02.342Z,18.20
2022-09-12T00:15:42.118Z,18.20
2022-09-12T00:16:21.357Z,18.20
2022-09-12T00:16:53.184Z,18.20
2022-09-12T00:17:25.074Z,18.20
2022-09-12T00:17:56.843Z,18.20
2022-09-12T00:18:28.750Z,18.00
2022-09-12T00:19:01.327Z,18.20
2022-09-12T00:19:33.082Z,18.20
2022-09-12T00:20:08.335Z,18.20
2022-09-12T00:20:44.631Z,18.10
2022-09-12T00:21:18.291Z,18.10
2022-09-12T00:21:50.074Z,18.10
2022-09-12T00:22:22.068Z,18.10
2022-09-12T00:22:53.889Z,18.10
2022-09-12T00:23:25.593Z,18.10
2022-09-12T00:23:57.447Z,18.10
2022-09-12T00:24:29.198Z,18.10
2022-09-12T00:25:00.981Z,18.10
2022-09-12T00:25:32.749Z,18.00
2022-09-12T00:26:06.541Z,18.00
2022-09-12T00:26:38.896Z,18.00
2022-09-12T00:27:10.645Z,18.00
2022-09-12T00:27:42.373Z,18.00
2022-09-12T00:28:16.698Z,18.00
2022-09-12T00:28:48.835Z,18.00
2022-09-12T00:29:22.604Z,18.00
2022-09-12T00:29:54.645Z,18.10
2022-09-12T00:30:26.474Z,18.00
2022-09-12T00:30:58.274Z,18.00
2022-09-12T00:31:30.202Z,18.00
2022-09-12T00:32:02.219Z,17.90
2022-09-12T00:32:34.430Z,17.90
2022-09-12T00:33:06.132Z,17.90
2022-09-12T00:33:38.462Z,17.90
2022-09-12T00:34:10.738Z,17.90
2022-09-12T00:34:42.531Z,17.90
2022-09-12T00:35:14.266Z,17.90
2022-09-12T00:35:49.072Z,17.90
2022-09-12T00:36:23.320Z,17.90
2022-09-12T00:36:55.067Z,17.90
2022-09-12T00:37:26.826Z,17.90
2022-09-12T00:37:58.862Z,18.00
2022-09-12T00:38:30.582Z,17.90
2022-09-12T00:39:03.767Z,17.80
2022-09-12T00:39:35.614Z,17.90
2022-09-12T00:40:07.869Z,17.90
2022-09-12T00:40:40.552Z,19.00
2022-09-12T00:41:16.984Z,17.90
2022-09-12T00:41:48.762Z,17.90
2022-09-12T00:42:20.615Z,17.90
2022-09-12T00:42:52.324Z,20.30
2022-09-12T00:43:56.187Z,17.90
2022-09-12T00:44:27.878Z,17.80
2022-09-12T00:44:59.642Z,17.80
2022-09-12T00:45:32.305Z,17.80
2022-09-12T00:46:23.291Z,17.80
2022-09-12T00:46:59.648Z,17.80
2022-09-12T00:47:33.274Z,17.90
2022-09-12T00:48:05.878Z,17.80
2022-09-12T00:48:49.810Z,17.80
2022-09-12T00:49:33.444Z,17.80
2022-09-12T00:50:12.549Z,17.80
2022-09-12T00:50:44.335Z,17.80
2022-09-12T00:51:19.029Z,17.80
2022-09-12T00:51:58.450Z,17.80
2022-09-12T00:52:59.965Z,17.80
2022-09-12T00:53:31.785Z,17.80
2022-09-12T00:54:10.569Z,17.80
2022-09-12T00:54:52.839Z,17.80
2022-09-12T00:55:39.065Z,17.80
2022-09-12T00:56:14.551Z,17.70
2022-09-12T00:56:50.138Z,17.80
2022-09-12T00:57:26.466Z,17.70
2022-09-12T00:58:08.945Z,17.80
2022-09-12T00:58:51.006Z,17.70
2022-09-12T00:59:27.495Z,17.70
2022-09-12T01:00:16.986Z,17.70
2022-09-12T01:00:49.220Z,17.70
2022-09-12T01:01:21.224Z,17.70
2022-09-12T01:01:54.584Z,17.70
2022-09-12T01:02:27.468Z,17.70
2022-09-12T01:03:06.894Z,17.70
2022-09-12T01:03:38.827Z,17.70
2022-09-12T01:04:12.810Z,17.70
2022-09-12T01:04:45.353Z,17.70
2022-09-12T01:05:18.051Z,17.70
2022-09-12T01:06:05.971Z,17.70
2022-09-12T01:06:41.712Z,17.60
2022-09-12T01:07:15.318Z,17.60
2022-09-12T01:07:48.917Z,17.70
2022-09-12T01:08:21.118Z,17.60
2022-09-12T01:08:55.392Z,17.70
2022-09-12T01:09:27.438Z,17.70
2022-09-12T01:09:59.451Z,17.60
2022-09-12T01:10:35.515Z,17.60
2022-09-12T01:11:09.971Z,17.60
2022-09-12T01:11:46.161Z,17.60
2022-09-12T01:12:20.530Z,17.60
2022-09-12T01:12:52.492Z,17.60
2022-09-12T01:13:24.955Z,17.60
2022-09-12T01:13:56.912Z,17.60
2022-09-12T01:14:31.446Z,17.60
2022-09-12T01:15:03.811Z,17.60
2022-09-12T01:15:39.794Z,17.60
2022-09-12T01:16:12.132Z,17.60
2022-09-12T01:16:45.828Z,17.60
2022-09-12T01:17:17.875Z,17.60
2022-09-12T01:17:55.902Z,17.60
2022-09-12T01:18:45.440Z,17.60
2022-09-12T01:19:56.055Z,17.60
2022-09-12T01:20:36.939Z,17.60
2022-09-12T01:21:48.782Z,17.60
2022-09-12T01:23:00.946Z,17.60
2022-09-12T01:23:57.284Z,17.60
2022-09-12T01:24:53.680Z,17.50
2022-09-12T01:25:54.433Z,17.50
2022-09-12T01:26:57.019Z,17.60
2022-09-12T01:27:44.404Z,17.50
2022-09-12T01:28:47.178Z,17.50
2022-09-12T01:29:49.911Z,17.50
2022-09-12T01:30:49.741Z,17.50
2022-09-12T01:31:44.234Z,17.50
2022-09-12T01:38:10.239Z,17.70
2022-09-12T01:38:56.202Z,17.80
2022-09-12T01:39:38.949Z,17.70
2022-09-12T01:40:44.808Z,17.60
2022-09-12T01:41:50.030Z,17.60
2022-09-12T01:42:34.990Z,17.50
2022-09-12T01:43:31.909Z,17.50
2022-09-12T01:44:26.174Z,17.50
2022-09-12T01:45:16.686Z,17.40
2022-09-12T01:46:12.577Z,17.50
2022-09-12T01:47:05.526Z,17.50
2022-09-12T01:47:45.036Z,17.50
2022-09-12T01:48:21.715Z,17.60
2022-09-12T01:49:12.354Z,17.50
2022-09-12T01:50:13.306Z,17.50
2022-09-12T01:51:00.369Z,17.40
2022-09-12T01:51:42.375Z,17.40
2022-09-12T01:52:18.385Z,17.40
2022-09-12T01:53:14.565Z,17.40
2022-09-12T01:53:55.737Z,17.40
2022-09-12T01:54:37.482Z,17.30
2022-09-12T01:55:22.953Z,17.40
2022-09-12T01:56:03.378Z,17.40
2022-09-12T01:56:40.391Z,17.40
2022-09-12T01:57:48.093Z,17.40
2022-09-12T01:58:34.584Z,17.40
2022-09-12T01:59:33.393Z,17.40
2022-09-12T02:00:10.682Z,17.40
2022-09-12T02:00:59.848Z,17.40
2022-09-12T02:01:35.309Z,17.40
2022-09-12T02:02:26.003Z,17.30
2022-09-12T02:03:05.139Z,17.40
2022-09-12T02:04:05.761Z,17.40
2022-09-12T02:04:56.803Z,17.40
2022-09-12T02:06:08.073Z,17.40
2022-09-12T02:06:57.968Z,17.40
2022-09-12T02:07:48.018Z,20.40
2022-09-12T02:08:26.211Z,17.30
2022-09-12T02:09:08.939Z,17.30
2022-09-12T02:10:03.104Z,17.40
2022-09-12T02:10:47.145Z,17.30
2022-09-12T02:11:20.716Z,17.30
2022-09-12T02:11:57.925Z,17.30
2022-09-12T02:12:43.386Z,17.30
2022-09-12T02:13:34.604Z,17.30
2022-09-12T02:14:27.726Z,17.30
2022-09-12T02:15:04.626Z,17.30
2022-09-12T02:15:49.775Z,17.30
2022-09-12T02:16:44.171Z,17.30
2022-09-12T02:17:26.378Z,17.30
2022-09-12T02:18:03.266Z,17.30
2022-09-12T02:18:41.606Z,17.40
2022-09-12T02:19:18.236Z,17.30
2022-09-12T02:20:01.165Z,17.30
2022-09-12T02:20:48.028Z,17.30
2022-09-12T02:21:24.259Z,17.30
2022-09-12T02:21:59.541Z,17.30
2022-09-12T02:22:35.682Z,17.30
2022-09-12T02:23:12.987Z,17.20
2022-09-12T02:23:53.662Z,17.20
2022-09-12T02:24:30.360Z,17.20
2022-09-12T02:25:05.826Z,17.20
2022-09-12T02:25:44.382Z,17.20
2022-09-12T02:26:23.720Z,17.20
2022-09-12T02:27:04.082Z,17.20
2022-09-12T02:27:43.090Z,17.20
2022-09-12T02:28:24.879Z,17.20
2022-09-12T02:28:57.283Z,17.20
2022-09-12T02:29:29.193Z,17.20
2022-09-12T02:30:01.145Z,17.20
2022-09-12T02:30:43.634Z,17.20
2022-09-12T02:31:33.636Z,17.20
2022-09-12T02:32:26.921Z,17.20
2022-09-12T02:33:13.818Z,17.20
2022-09-12T02:34:11.781Z,17.30
2022-09-12T02:34:55.117Z,17.20
2022-09-12T02:35:58.563Z,17.20
2022-09-12T02:36:45.363Z,17.20
2022-09-12T02:37:37.304Z,20.50
2022-09-12T02:38:26.747Z,17.20
2022-09-12T02:39:00.137Z,17.20
2022-09-12T02:39:33.050Z,17.30
2022-09-12T02:40:06.981Z,17.20
2022-09-12T02:40:39.342Z,17.20
2022-09-12T02:41:15.196Z,17.20
2022-09-12T02:41:51.023Z,17.20
2022-09-12T02:42:23.897Z,17.20
2022-09-12T02:42:56.774Z,17.20
2022-09-12T02:43:28.730Z,17.20
2022-09-12T02:44:03.955Z,17.20
2022-09-12T02:44:36.819Z,17.20
2022-09-12T02:45:10.310Z,17.20
2022-09-12T02:45:42.372Z,17.20
2022-09-12T02:46:32.730Z,17.20
2022-09-12T02:47:23.013Z,17.20
2022-09-12T02:48:05.602Z,17.20
2022-09-12T02:48:42.664Z,17.20
2022-09-12T02:49:16.547Z,17.40
2022-09-12T02:49:48.957Z,17.20
2022-09-12T02:50:20.945Z,17.20
2022-09-12T02:50:53.909Z,17.20
2022-09-12T02:51:26.574Z,17.20
2022-09-12T02:52:00.722Z,17.20
2022-09-12T02:52:32.902Z,17.20
2022-09-12T02:53:08.081Z,17.20
2022-09-12T02:53:41.674Z,17.20
2022-09-12T02:54:16.818Z,17.20
2022-09-12T02:54:50.023Z,17.20
2022-09-12T02:55:24.606Z,17.20
2022-09-12T02:55:56.795Z,17.20
2022-09-12T02:56:30.678Z,17.20
2022-09-12T02:57:02.440Z,17.20
2022-09-12T02:57:34.264Z,17.20
2022-09-12T02:58:11.811Z,17.20
2022-09-12T02:58:44.322Z,17.20
2022-09-12T02:59:20.692Z,17.10
2022-09-12T02:59:59.183Z,20.10
2022-09-12T03:00:37.667Z,17.20
2022-09-12T03:01:18.352Z,17.20
2022-09-12T03:02:11.730Z,17.10
2022-09-12T03:02:52.611Z,17.20
2022-09-12T03:03:40.183Z,17.10
2022-09-12T03:04:45.514Z,17.10
2022-09-12T03:05:35.035Z,17.10
2022-09-12T03:06:26.193Z,17.10
2022-09-12T03:07:33.413Z,17.10
2022-09-12T03:08:32.900Z,17.10
2022-09-12T03:09:12.364Z,17.00
2022-09-12T03:09:58.324Z,17.00
2022-09-12T03:10:39.238Z,17.10
2022-09-12T03:11:36.662Z,17.10
2022-09-12T03:12:23.407Z,17.10
2022-09-12T03:13:36.100Z,17.10
2022-09-12T03:14:34.466Z,18.60
2022-09-12T03:15:21.205Z,17.00
2022-09-12T03:16:15.714Z,17.00
2022-09-12T03:17:09.213Z,17.00
2022-09-12T03:18:01.986Z,17.10
2022-09-12T03:18:43.646Z,17.10
2022-09-12T03:19:47.486Z,17.10
2022-09-12T03:20:39.700Z,17.00
2022-09-12T03:21:14.446Z,17.00
2022-09-12T03:22:11.077Z,17.10
2022-09-12T03:22:56.851Z,17.00
2022-09-12T03:23:38.782Z,17.00
2022-09-12T03:24:29.435Z,17.00
2022-09-12T03:25:16.901Z,17.00
2022-09-12T03:26:05.669Z,17.10
2022-09-12T03:26:44.542Z,17.00
2022-09-12T03:27:24.297Z,17.00
2022-09-12T03:28:07.353Z,17.00
2022-09-12T03:28:40.334Z,17.00
2022-09-12T03:29:15.043Z,17.00
2022-09-12T03:29:49.294Z,17.00
2022-09-12T03:30:21.065Z,17.00
2022-09-12T03:30:54.663Z,17.00
2022-09-12T03:31:26.543Z,17.00
2022-09-12T03:31:58.867Z,17.00
2022-09-12T03:32:47.944Z,17.00
2022-09-12T03:33:22.019Z,17.00
2022-09-12T03:33:53.737Z,16.90
2022-09-12T03:34:27.768Z,17.00
2022-09-12T03:34:59.622Z,16.90
2022-09-12T03:35:31.502Z,17.00
2022-09-12T03:36:03.373Z,17.10
2022-09-12T03:36:35.190Z,16.90
2022-09-12T03:37:07.069Z,16.90
2022-09-12T03:37:39.522Z,16.90
2022-09-12T03:38:11.279Z,17.00
2022-09-12T03:38:43.078Z,17.10
2022-09-12T03:39:15.367Z,17.00
2022-09-12T03:39:47.263Z,16.90
2022-09-12T03:40:19.943Z,16.90
2022-09-12T03:40:54.887Z,17.00
2022-09-12T03:41:26.880Z,17.00
2022-09-12T03:41:58.649Z,16.90
2022-09-12T03:42:30.422Z,17.00
2022-09-12T03:43:02.490Z,16.90
2022-09-12T03:43:34.223Z,17.00
2022-09-12T03:44:06.626Z,16.90
2022-09-12T03:44:38.359Z,16.90
2022-09-12T03:45:11.281Z,17.00
2022-09-12T03:45:43.058Z,16.90
2022-09-12T03:46:14.918Z,16.90
2022-09-12T03:46:46.723Z,16.90
2022-09-12T03:47:18.430Z,16.90
2022-09-12T03:47:50.144Z,16.90
2022-09-12T03:48:21.929Z,16.90
2022-09-12T03:48:53.665Z,16.90
2022-09-12T03:49:25.350Z,17.00
2022-09-12T03:49:57.091Z,16.90
2022-09-12T03:50:28.992Z,16.90
2022-09-12T03:51:02.733Z,16.90
2022-09-12T03:51:34.542Z,16.90
2022-09-12T03:52:06.318Z,16.90
2022-09-12T03:52:38.252Z,16.90
2022-09-12T03:53:12.963Z,16.90
2022-09-12T03:53:47.446Z,16.90
2022-09-12T03:54:19.253Z,16.90
2022-09-12T03:54:51.428Z,16.90
2022-09-12T03:55:23.271Z,16.90
2022-09-12T03:55:54.997Z,16.90
2022-09-12T03:56:26.704Z,16.90
2022-09-12T03:56:58.454Z,16.90
2022-09-12T03:57:30.194Z,16.90
2022-09-12T03:58:01.996Z,17.20
2022-09-12T03:58:35.707Z,16.90
2022-09-12T03:59:07.849Z,16.90
2022-09-12T03:59:39.586Z,16.90
2022-09-12T04:00:13.587Z,16.90
2022-09-12T04:00:48.372Z,16.90
2022-09-12T04:01:20.739Z,16.90
2022-09-12T04:01:52.565Z,16.90
2022-09-12T04:02:24.412Z,16.90
2022-09-12T04:02:56.993Z,16.90
2022-09-12T04:03:28.686Z,16.90
2022-09-12T04:04:00.594Z,16.90
2022-09-12T04:04:32.506Z,16.90
2022-09-12T04:05:04.946Z,16.90
2022-09-12T04:05:36.714Z,16.90
2022-09-12T04:06:11.143Z,16.80
2022-09-12T04:06:44.002Z,16.90
2022-09-12T04:07:16.710Z,16.90
2022-09-12T04:07:48.699Z,16.90
2022-09-12T04:08:20.449Z,16.80
2022-09-12T04:08:54.598Z,16.80
2022-09-12T04:09:26.398Z,16.80
2022-09-12T04:09:58.222Z,16.90
2022-09-12T04:10:31.190Z,17.10
2022-09-12T04:11:11.674Z,16.90
2022-09-12T04:11:43.431Z,16.80
2022-09-12T04:12:15.214Z,16.90
2022-09-12T04:12:47.307Z,17.20
2022-09-12T04:13:19.017Z,16.80
2022-09-12T04:13:51.053Z,16.80
2022-09-12T04:14:23.029Z,16.80
2022-09-12T04:14:54.822Z,16.80
2022-09-12T04:15:26.546Z,16.80
2022-09-12T04:15:59.946Z,16.90
2022-09-12T04:16:32.338Z,16.80
2022-09-12T04:17:04.502Z,16.80
2022-09-12T04:17:36.245Z,16.80
2022-09-12T04:18:08.005Z,16.80
2022-09-12T04:18:40.609Z,16.80
2022-09-12T04:19:12.757Z,16.80
2022-09-12T04:19:44.526Z,17.00
2022-09-12T04:20:16.540Z,16.80
2022-09-12T04:20:48.251Z,16.80
2022-09-12T04:21:24.262Z,16.80
2022-09-12T04:21:56.005Z,16.80
2022-09-12T04:22:28.130Z,16.80
2022-09-12T04:22:59.872Z,16.80
2022-09-12T04:23:31.951Z,16.80
2022-09-12T04:24:03.850Z,16.80
2022-09-12T04:24:35.610Z,16.80
2022-09-12T04:25:08.072Z,16.80
2022-09-12T04:25:39.789Z,16.80
2022-09-12T04:26:13.591Z,16.70
2022-09-12T04:26:45.397Z,16.80
2022-09-12T04:27:17.148Z,16.80
2022-09-12T04:27:48.874Z,16.80
2022-09-12T04:28:20.761Z,16.80
2022-09-12T04:28:54.749Z,17.60
2022-09-12T04:29:27.686Z,16.80
2022-09-12T04:30:01.112Z,16.80
2022-09-12T04:30:34.462Z,16.80
2022-09-12T04:31:13.881Z,17.40
2022-09-12T04:31:45.717Z,17.30
2022-09-12T04:32:18.823Z,16.70
2022-09-12T04:32:50.605Z,16.80
2022-09-12T04:33:22.670Z,16.70
2022-09-12T04:33:57.937Z,16.80
2022-09-12T04:34:32.387Z,16.70
2022-09-12T04:35:04.942Z,16.80
2022-09-12T04:35:37.032Z,16.80
2022-09-12T04:36:11.774Z,17.40
2022-09-12T04:36:43.582Z,16.70
2022-09-12T04:37:15.567Z,16.70
2022-09-12T04:37:47.307Z,16.70
2022-09-12T04:38:19.054Z,16.70
2022-09-12T04:38:52.102Z,16.80
2022-09-12T04:39:23.948Z,16.80
2022-09-12T04:39:57.854Z,16.80
2022-09-12T04:40:30.554Z,16.80
2022-09-12T04:41:11.500Z,16.70
2022-09-12T04:41:43.336Z,16.70
2022-09-12T04:42:15.457Z,16.70
2022-09-12T04:42:47.234Z,16.80
2022-09-12T04:43:19.019Z,16.80
2022-09-12T04:44:01.176Z,16.70
2022-09-12T04:44:32.978Z,16.80
2022-09-12T04:45:06.197Z,16.70
2022-09-12T04:45:38.030Z,16.70
2022-09-12T04:46:11.572Z,16.70
2022-09-12T04:46:45.904Z,16.70
2022-09-12T04:47:17.758Z,16.70
2022-09-12T04:47:49.493Z,16.70
2022-09-12T04:48:21.238Z,16.70
2022-09-12T04:48:56.677Z,16.80
2022-09-12T04:49:29.001Z,16.70
2022-09-12T04:50:00.723Z,16.80
2022-09-12T04:50:32.467Z,16.70
2022-09-12T04:51:21.940Z,16.70
2022-09-12T04:51:55.041Z,16.70
2022-09-12T04:52:27.032Z,16.70
2022-09-12T04:52:58.767Z,16.70
2022-09-12T04:53:30.923Z,16.70
2022-09-12T04:54:15.258Z,16.70
2022-09-12T04:54:47.014Z,16.70
2022-09-12T04:55:19.074Z,16.70
2022-09-12T04:55:50.779Z,16.70
2022-09-12T04:56:23.691Z,16.70
2022-09-12T04:56:55.439Z,16.70
2022-09-12T04:57:27.199Z,16.70
2022-09-12T04:57:58.921Z,16.80
2022-09-12T04:58:32.606Z,16.60
2022-09-12T04:59:04.608Z,16.70
2022-09-12T04:59:36.507Z,16.70
2022-09-12T05:00:08.984Z,16.70
2022-09-12T05:00:40.699Z,16.70
2022-09-12T05:01:17.994Z,16.70
2022-09-12T05:01:50.273Z,16.70
2022-09-12T05:02:22.151Z,16.70
2022-09-12T05:02:53.890Z,16.70
2022-09-12T05:03:25.602Z,16.70
2022-09-12T05:03:59.809Z,16.70
2022-09-12T05:04:31.812Z,16.70
2022-09-12T05:05:03.702Z,16.60
2022-09-12T05:05:36.657Z,16.60
2022-09-12T05:06:11.262Z,16.70
2022-09-12T05:06:43.639Z,16.70
2022-09-12T05:07:15.460Z,16.60
2022-09-12T05:07:47.232Z,17.20
2022-09-12T05:08:18.954Z,16.60
2022-09-12T05:08:52.049Z,16.70
2022-09-12T05:09:23.903Z,16.70
2022-09-12T05:09:55.654Z,16.70
2022-09-12T05:10:28.468Z,16.70
2022-09-12T05:11:08.220Z,16.80
2022-09-12T05:12:35.798Z,16.70
2022-09-12T05:13:07.549Z,15.30
2022-09-12T05:13:40.057Z,16.70
2022-09-12T05:14:12.223Z,16.60
2022-09-12T05:14:44.201Z,16.60
2022-09-12T05:15:16.117Z,16.80
2022-09-12T05:15:58.618Z,16.60
2022-09-12T05:16:32.070Z,16.80
2022-09-12T05:17:05.949Z,16.60
2022-09-12T05:17:37.712Z,16.70
2022-09-12T05:18:09.479Z,16.60
2022-09-12T05:18:41.970Z,16.60
2022-09-12T05:19:13.704Z,16.60
2022-09-12T05:19:45.523Z,16.60
2022-09-12T05:20:17.388Z,16.60
2022-09-12T05:20:49.230Z,16.60
2022-09-12T05:21:25.295Z,16.60
2022-09-12T05:21:57.403Z,16.60
2022-09-12T05:22:29.122Z,16.60
2022-09-12T05:23:01.667Z,16.60
2022-09-12T05:23:33.860Z,16.60
2022-09-12T05:24:06.598Z,16.50
2022-09-12T05:24:39.109Z,16.60
2022-09-12T05:25:10.875Z,16.60
2022-09-12T05:25:53.616Z,16.60
2022-09-12T05:26:25.679Z,16.60
2022-09-12T05:26:57.436Z,16.60
2022-09-12T05:27:29.147Z,16.60
2022-09-12T05:28:00.882Z,16.60
2022-09-12T05:28:35.785Z,16.60
2022-09-12T05:29:07.539Z,16.70
2022-09-12T05:29:39.266Z,16.70
2022-09-12T05:30:11.681Z,16.60
2022-09-12T05:30:43.524Z,16.60
2022-09-12T05:31:21.037Z,16.60
2022-09-12T05:31:52.800Z,16.70
2022-09-12T05:32:24.554Z,16.60
2022-09-12T05:32:56.930Z,16.60
2022-09-12T05:33:29.262Z,16.60
2022-09-12T05:34:01.430Z,16.60
2022-09-12T05:34:33.192Z,16.50
2022-09-12T05:35:05.218Z,16.60
2022-09-12T05:35:40.537Z,16.60
2022-09-12T05:36:15.189Z,16.60
2022-09-12T05:36:46.946Z,16.50
2022-09-12T05:37:18.664Z,16.50
2022-09-12T05:37:50.386Z,16.50
2022-09-12T05:38:24.886Z,16.50
2022-09-12T05:38:57.111Z,16.50
2022-09-12T05:39:28.826Z,16.50
2022-09-12T05:40:01.375Z,16.50
2022-09-12T05:40:34.371Z,16.50
2022-09-12T05:41:13.450Z,16.50
2022-09-12T05:41:48.269Z,16.50
2022-09-12T05:42:19.999Z,16.50
2022-09-12T05:42:51.742Z,16.60
2022-09-12T05:43:23.476Z,16.50
2022-09-12T05:43:57.443Z,16.50
2022-09-12T05:44:29.251Z,16.50
2022-09-12T05:45:00.954Z,17.10
2022-09-12T05:45:32.787Z,16.50
2022-09-12T05:46:09.716Z,16.50
2022-09-12T05:46:44.107Z,16.50
2022-09-12T05:47:17.271Z,16.50
2022-09-12T05:47:49.263Z,16.50
2022-09-12T05:48:24.162Z,16.50
2022-09-12T05:48:56.852Z,16.50
2022-09-12T05:49:28.663Z,16.50
2022-09-12T05:50:00.402Z,16.50
2022-09-12T05:50:32.897Z,16.80
2022-09-12T05:51:15.272Z,16.50
2022-09-12T05:51:47.114Z,16.50
2022-09-12T05:52:20.250Z,16.40
2022-09-12T05:52:52.042Z,16.40
2022-09-12T05:53:28.101Z,16.50
2022-09-12T05:54:01.562Z,16.40
2022-09-12T05:54:34.312Z,16.40
2022-09-12T05:55:06.445Z,16.40
2022-09-12T05:55:38.228Z,16.40
2022-09-12T05:56:12.566Z,16.40
2022-09-12T05:56:45.314Z,16.70
2022-09-12T05:57:17.054Z,16.40
2022-09-12T05:57:48.878Z,16.40
2022-09-12T05:58:21.262Z,17.20
2022-09-12T05:58:59.328Z,16.60
2022-09-12T05:59:31.314Z,16.40
2022-09-12T06:00:05.734Z,16.50
2022-09-12T06:00:43.704Z,16.40
2022-09-12T06:01:17.951Z,16.40
2022-09-12T06:01:50.260Z,16.40
2022-09-12T06:02:22.151Z,16.40
2022-09-12T06:02:53.924Z,16.40
2022-09-12T06:03:25.681Z,16.40
2022-09-12T06:04:00.770Z,16.40
2022-09-12T06:04:32.562Z,16.40
2022-09-12T06:05:04.600Z,16.40
2022-09-12T06:05:36.344Z,14.70
2022-09-12T06:06:09.026Z,16.60
2022-09-12T06:06:44.900Z,16.40
2022-09-12T06:07:16.660Z,16.70
2022-09-12T06:07:48.490Z,16.40
2022-09-12T06:08:20.208Z,16.40
2022-09-12T06:08:54.616Z,16.40
2022-09-12T06:09:26.361Z,16.40
2022-09-12T06:09:59.192Z,16.80
2022-09-12T06:10:31.198Z,16.50
2022-09-12T06:11:05.734Z,15.90
2022-09-12T06:11:40.927Z,16.40
2022-09-12T06:12:13.589Z,17.80
2022-09-12T06:12:45.630Z,16.40
2022-09-12T06:13:17.442Z,16.40
2022-09-12T06:13:50.944Z,16.40
2022-09-12T06:14:22.754Z,18.00
2022-09-12T06:14:54.498Z,16.70
2022-09-12T06:15:26.213Z,16.40
2022-09-12T06:16:06.721Z,16.40
2022-09-12T06:16:39.526Z,16.40
2022-09-12T06:17:11.299Z,16.40
2022-09-12T06:17:43.034Z,16.40
2022-09-12T06:18:14.727Z,16.40
2022-09-12T06:18:53.798Z,16.40
2022-09-12T06:19:27.548Z,16.40
2022-09-12T06:19:59.310Z,16.40
2022-09-12T06:20:31.209Z,16.60
2022-09-12T06:21:08.604Z,16.40
2022-09-12T06:21:40.317Z,16.40
2022-09-12T06:22:12.074Z,16.40
2022-09-12T06:22:43.847Z,16.40
2022-09-12T06:23:15.823Z,16.20
2022-09-12T06:23:48.099Z,16.50
2022-09-12T06:24:21.275Z,16.40
2022-09-12T06:24:57.756Z,16.40
2022-09-12T06:25:29.766Z,16.50
2022-09-12T06:26:02.642Z,16.40
2022-09-12T06:26:34.639Z,16.60
2022-09-12T06:27:06.337Z,16.40
2022-09-12T06:27:38.063Z,16.40
2022-09-12T06:28:09.799Z,16.40
2022-09-12T06:28:42.842Z,16.40
2022-09-12T06:29:15.355Z,16.40
2022-09-12T06:29:47.111Z,16.40
2022-09-12T06:30:21.266Z,16.40
2022-09-12T06:31:04.466Z,16.40
2022-09-12T06:31:37.880Z,16.50
2022-09-12T06:32:11.544Z,16.40
2022-09-12T06:32:43.290Z,16.50
2022-09-12T06:33:15.754Z,16.40
2022-09-12T06:33:51.016Z,16.40
2022-09-12T06:34:22.836Z,16.40
2022-09-12T06:34:54.768Z,16.40
2022-09-12T06:35:26.516Z,16.40
2022-09-12T06:36:11.541Z,16.40
2022-09-12T06:36:47.203Z,16.40
2022-09-12T06:37:19.783Z,16.40
2022-09-12T06:37:51.528Z,16.40
2022-09-12T06:38:23.253Z,16.40
2022-09-12T06:38:57.255Z,16.40
2022-09-12T06:39:29.035Z,16.40
2022-09-12T06:40:02.063Z,16.40
2022-09-12T06:40:34.043Z,16.50
2022-09-12T06:41:08.885Z,16.40
2022-09-12T06:41:44.016Z,16.40
2022-09-12T06:42:16.613Z,16.40
2022-09-12T06:42:56.477Z,16.50
2022-09-12T06:43:38.414Z,17.00
2022-09-12T06:44:14.246Z,16.50
2022-09-12T06:44:45.964Z,16.50
2022-09-12T06:45:19.903Z,16.40
2022-09-12T06:45:51.762Z,16.50
2022-09-12T06:46:24.180Z,16.50
2022-09-12T06:46:56.047Z,16.50
2022-09-12T06:47:28.159Z,16.40
2022-09-12T06:48:00.198Z,16.50
2022-09-12T06:48:32.159Z,16.40
2022-09-12T06:49:03.964Z,16.50
2022-09-12T06:49:35.810Z,16.40
2022-09-12T06:50:08.389Z,16.50
2022-09-12T06:50:40.255Z,16.50
2022-09-12T06:51:17.631Z,16.50
2022-09-12T06:51:49.470Z,16.50
2022-09-12T06:52:21.284Z,16.50
2022-09-12T06:52:53.922Z,16.40
2022-09-12T06:53:27.389Z,16.40
2022-09-12T06:53:59.333Z,16.50
2022-09-12T06:54:31.080Z,16.60
2022-09-12T06:55:03.657Z,16.50
2022-09-12T06:55:35.413Z,16.50
2022-09-12T06:56:11.454Z,16.50
2022-09-12T06:56:44.142Z,16.50
2022-09-12T06:57:15.924Z,16.50
2022-09-12T06:57:47.641Z,16.50
2022-09-12T06:58:19.423Z,16.50
2022-09-12T06:58:52.915Z,17.10
2022-09-12T06:59:24.838Z,16.60
2022-09-12T06:59:56.596Z,16.50
2022-09-12T07:00:28.342Z,16.50
2022-09-12T07:01:07.721Z,16.50
2022-09-12T07:01:40.339Z,16.60
2022-09-12T07:02:12.593Z,16.70
2022-09-12T07:02:44.389Z,16.50
2022-09-12T07:03:16.187Z,16.50
2022-09-12T07:03:50.917Z,16.60
2022-09-12T07:04:22.623Z,16.50
2022-09-12T07:04:54.387Z,16.60
2022-09-12T07:05:26.154Z,16.60
2022-09-12T07:06:02.092Z,16.60
2022-09-12T07:06:39.749Z,16.50
2022-09-12T07:07:11.942Z,16.50
2022-09-12T07:07:43.666Z,16.60
2022-09-12T07:08:15.403Z,16.60
2022-09-12T07:08:47.984Z,16.60
2022-09-12T07:09:19.678Z,16.60
2022-09-12T07:09:51.421Z,16.60
2022-09-12T07:10:23.248Z,16.60
2022-09-12T07:10:54.980Z,16.60
2022-09-12T07:11:32.142Z,16.60
2022-09-12T07:12:04.475Z,16.60
2022-09-12T07:12:36.221Z,16.60
2022-09-12T07:13:08.009Z,16.60
2022-09-12T07:13:40.818Z,16.60
2022-09-12T07:14:14.379Z,16.60
2022-09-12T07:14:46.098Z,16.70
2022-09-12T07:15:18.031Z,16.70
2022-09-12T07:15:49.766Z,16.70
2022-09-12T07:16:21.703Z,16.70
2022-09-12T07:16:53.481Z,16.70
2022-09-12T07:17:25.269Z,16.60
2022-09-12T07:17:56.974Z,16.70
2022-09-12T07:18:29.608Z,16.70
2022-09-12T07:19:02.858Z,16.60
2022-09-12T07:19:35.030Z,16.70
2022-09-12T07:20:07.448Z,16.70
2022-09-12T07:20:39.754Z,16.70
2022-09-12T07:21:13.769Z,16.70
2022-09-12T07:21:45.628Z,16.70
2022-09-12T07:22:17.518Z,16.70
2022-09-12T07:22:50.470Z,16.70
2022-09-12T07:23:22.214Z,16.70
2022-09-12T07:23:57.949Z,17.10
2022-09-12T07:24:29.750Z,16.90
2022-09-12T07:25:02.047Z,16.70
2022-09-12T07:25:33.770Z,16.70
2022-09-12T07:26:05.963Z,16.70
2022-09-12T07:26:39.964Z,16.80
2022-09-12T07:27:11.921Z,16.70
2022-09-12T07:27:45.412Z,16.70
2022-09-12T07:28:20.262Z,16.70
2022-09-12T07:28:54.094Z,16.70
2022-09-12T07:29:36.554Z,16.80
2022-09-12T07:30:09.477Z,19.30
2022-09-12T07:30:41.303Z,16.80
2022-09-12T07:31:16.258Z,16.80
2022-09-12T07:31:48.232Z,16.80
2022-09-12T07:32:19.955Z,16.70
2022-09-12T07:32:53.616Z,16.80
2022-09-12T07:33:28.314Z,16.80
2022-09-12T07:34:00.125Z,16.80
2022-09-12T07:34:32.496Z,16.90
2022-09-12T07:35:04.578Z,16.90
2022-09-12T07:35:36.978Z,16.80
2022-09-12T07:36:14.233Z,16.80
2022-09-12T07:36:46.012Z,16.80
2022-09-12T07:37:18.138Z,17.00
2022-09-12T07:37:49.922Z,17.50
2022-09-12T07:38:22.432Z,16.90
2022-09-12T07:38:57.643Z,16.90
2022-09-12T07:39:29.567Z,16.90
2022-09-12T07:40:02.219Z,16.90
2022-09-12T07:40:34.023Z,16.90
2022-09-12T07:41:12.365Z,16.90
2022-09-12T07:41:44.309Z,16.90
2022-09-12T07:42:16.781Z,16.90
2022-09-12T07:42:48.528Z,16.90
2022-09-12T07:43:20.248Z,16.90
2022-09-12T07:43:56.711Z,16.90
2022-09-12T07:44:29.351Z,17.10
2022-09-12T07:45:01.136Z,17.10
2022-09-12T07:45:32.933Z,17.10
2022-09-12T07:46:04.817Z,17.00
2022-09-12T07:46:36.659Z,17.00
2022-09-12T07:47:08.773Z,17.00
2022-09-12T07:47:40.876Z,17.00
2022-09-12T07:48:12.668Z,16.90
2022-09-12T07:48:45.257Z,17.00